Mary Meyer, Vermont
Current Conditions -  °F | °C
As of 12:54 AM on Thursday 23 Oct 2014 (Local Time) from KVSF Reporting Station
Light Rain Light Rain  
Wind Chill: 47°   Ceiling: 2000
Heat Index: 49°   Visibility: 6mi
Dew Point: 45°   Wind: 6mph
Humidity: 86%   Direction: 360°N
Pressure: 29.93"   Gusts: NA
Location:  43.0642°N, 72.6668°W
Report Text: KVSF 230454Z AUTO 36005KT 6SM -RA BR OVC020 09/07 A2993 RMK AO2 SLP137 P0001 T00940072 401060083
Loading
Personal Weather Stations






























Interactive Weather Map
Tropical Storm Tracking
New forecast layout! Learn more

10-Day Weather Forecast

Advertisements
Track Severe Weather on mobile